sensor_id;sensor_type;location;lat;lon;timestamp;pressure;altitude;pressure_sealevel;temperature;humidity
27613;BME280;15036;48.094;-1.690;2023-03-01T00:01:23;102120.41;;;6.84;60.35
27613;BME280;15036;48.094;-1.690;2023-03-01T00:03:48;102129.53;;;6.83;60.13
27613;BME280;15036;48.094;-1.690;2023-03-01T00:06:14;102124.97;;;6.84;59.74
27613;BME280;15036;48.094;-1.690;2023-03-01T00:08:39;102128.09;;;6.70;60.22
27613;BME280;15036;48.094;-1.690;2023-03-01T00:13:34;102133.47;;;6.41;60.80
27613;BME280;15036;48.094;-1.690;2023-03-01T00:16:05;102141.19;;;6.46;60.85
27613;BME280;15036;48.094;-1.690;2023-03-01T00:18:31;102140.38;;;6.64;59.99
27613;BME280;15036;48.094;-1.690;2023-03-01T00:20:57;102147.50;;;6.56;60.45
27613;BME280;15036;48.094;-1.690;2023-03-01T00:23:23;102135.38;;;6.60;60.21
27613;BME280;15036;48.094;-1.690;2023-03-01T00:25:49;102140.50;;;6.44;60.16
27613;BME280;15036;48.094;-1.690;2023-03-01T00:28:15;102146.56;;;6.27;60.65
27613;BME280;15036;48.094;-1.690;2023-03-01T00:30:41;102151.09;;;6.66;59.72
27613;BME280;15036;48.094;-1.690;2023-03-01T00:33:06;102156.00;;;6.32;60.43
27613;BME280;15036;48.094;-1.690;2023-03-01T00:35:32;102161.19;;;6.45;59.96
27613;BME280;15036;48.094;-1.690;2023-03-01T00:37:58;102158.09;;;6.68;59.57
27613;BME280;15036;48.094;-1.690;2023-03-01T00:40:24;102151.91;;;6.47;59.62
27613;BME280;15036;48.094;-1.690;2023-03-01T00:42:50;102166.00;;;6.32;59.55
27613;BME280;15036;48.094;-1.690;2023-03-01T00:45:16;102164.84;;;6.34;59.82
27613;BME280;15036;48.094;-1.690;2023-03-01T00:47:42;102162.22;;;6.13;59.75
27613;BME280;15036;48.094;-1.690;2023-03-01T00:50:08;102165.88;;;6.43;59.69
27613;BME280;15036;48.094;-1.690;2023-03-01T00:52:33;102161.47;;;6.42;59.45
27613;BME280;15036;48.094;-1.690;2023-03-01T00:55:00;102163.72;;;6.06;59.79
27613;BME280;15036;48.094;-1.690;2023-03-01T00:57:25;102159.31;;;6.05;60.28
27613;BME280;15036;48.094;-1.690;2023-03-01T00:59:51;102162.56;;;5.99;60.50
27613;BME280;15036;48.094;-1.690;2023-03-01T01:02:18;102165.91;;;6.12;60.40
27613;BME280;15036;48.094;-1.690;2023-03-01T01:04:43;102164.91;;;6.13;59.64
27613;BME280;15036;48.094;-1.690;2023-03-01T01:07:09;102166.78;;;6.13;59.69
27613;BME280;15036;48.094;-1.690;2023-03-01T01:09:34;102168.16;;;6.38;59.68
27613;BME280;15036;48.094;-1.690;2023-03-01T01:12:00;102167.31;;;6.37;59.02
27613;BME280;15036;48.094;-1.690;2023-03-01T01:14:25;102173.63;;;6.17;59.50
27613;BME280;15036;48.094;-1.690;2023-03-01T01:16:51;102170.84;;;5.98;60.10
27613;BME280;15036;48.094;-1.690;2023-03-01T01:19:16;102166.59;;;5.84;60.42
27613;BME280;15036;48.094;-1.690;2023-03-01T01:21:41;102169.44;;;6.34;58.98
27613;BME280;15036;48.094;-1.690;2023-03-01T01:24:11;102174.63;;;6.16;59.41
27613;BME280;15036;48.094;-1.690;2023-03-01T01:26:36;102165.94;;;6.22;59.12
27613;BME280;15036;48.094;-1.690;2023-03-01T01:29:03;102176.25;;;6.28;58.75
27613;BME280;15036;48.094;-1.690;2023-03-01T01:31:30;102180.13;;;6.05;59.49
27613;BME280;15036;48.094;-1.690;2023-03-01T01:33:56;102180.47;;;6.11;59.15
27613;BME280;15036;48.094;-1.690;2023-03-01T01:36:22;102182.13;;;6.03;58.98
27613;BME280;15036;48.094;-1.690;2023-03-01T01:38:48;102179.69;;;6.00;59.37
27613;BME280;15036;48.094;-1.690;2023-03-01T01:41:14;102178.41;;;5.63;59.98
27613;BME280;15036;48.094;-1.690;2023-03-01T01:44:10;102180.03;;;5.86;59.46
27613;BME280;15036;48.094;-1.690;2023-03-01T01:46:36;102176.66;;;5.93;59.24
27613;BME280;15036;48.094;-1.690;2023-03-01T01:49:09;102177.91;;;6.10;58.72
27613;BME280;15036;48.094;-1.690;2023-03-01T01:51:40;102170.47;;;5.71;59.87
27613;BME280;15036;48.094;-1.690;2023-03-01T01:54:25;102170.03;;;5.86;59.09
27613;BME280;15036;48.094;-1.690;2023-03-01T01:56:55;102179.88;;;5.67;59.36
27613;BME280;15036;48.094;-1.690;2023-03-01T01:59:23;102170.47;;;5.71;59.59
27613;BME280;15036;48.094;-1.690;2023-03-01T02:01:51;102171.03;;;5.65;59.54
27613;BME280;15036;48.094;-1.690;2023-03-01T02:04:17;102172.72;;;5.45;59.70
27613;BME280;15036;48.094;-1.690;2023-03-01T02:07:06;102165.34;;;5.68;58.88
27613;BME280;15036;48.094;-1.690;2023-03-01T02:09:34;102170.19;;;5.64;59.10
27613;BME280;15036;48.094;-1.690;2023-03-01T02:12:02;102165.88;;;5.62;58.69
27613;BME280;15036;48.094;-1.690;2023-03-01T02:14:29;102161.19;;;5.64;58.35
27613;BME280;15036;48.094;-1.690;2023-03-01T02:16:54;102161.81;;;5.77;58.22
27613;BME280;15036;48.094;-1.690;2023-03-01T02:19:34;102155.66;;;5.45;58.41
27613;BME280;15036;48.094;-1.690;2023-03-01T02:22:03;102144.59;;;5.78;57.38
27613;BME280;15036;48.094;-1.690;2023-03-01T02:27:22;102144.69;;;5.87;56.37
27613;BME280;15036;48.094;-1.690;2023-03-01T02:29:50;102147.06;;;5.60;56.77
27613;BME280;15036;48.094;-1.690;2023-03-01T02:32:16;102155.81;;;5.73;56.85
27613;BME280;15036;48.094;-1.690;2023-03-01T02:34:52;102145.78;;;5.85;56.12
27613;BME280;15036;48.094;-1.690;2023-03-01T02:37:19;102143.09;;;5.85;55.53
27613;BME280;15036;48.094;-1.690;2023-03-01T02:40:02;102135.44;;;5.90;55.60
27613;BME280;15036;48.094;-1.690;2023-03-01T02:42:32;102131.44;;;5.73;55.84
27613;BME280;15036;48.094;-1.690;2023-03-01T02:44:59;102131.09;;;5.67;55.98
27613;BME280;15036;48.094;-1.690;2023-03-01T02:47:24;102124.31;;;5.72;56.03
27613;BME280;15036;48.094;-1.690;2023-03-01T02:49:49;102113.06;;;5.47;55.42
27613;BME280;15036;48.094;-1.690;2023-03-01T02:52:43;102116.59;;;5.47;55.09
27613;BME280;15036;48.094;-1.690;2023-03-01T02:55:12;102107.78;;;5.75;54.55
27613;BME280;15036;48.094;-1.690;2023-03-01T02:57:42;102120.94;;;5.80;53.86
27613;BME280;15036;48.094;-1.690;2023-03-01T03:00:13;102107.06;;;5.94;53.56
27613;BME280;15036;48.094;-1.690;2023-03-01T03:02:48;102104.34;;;5.94;53.20
27613;BME280;15036;48.094;-1.690;2023-03-01T03:05:20;102107.19;;;5.72;54.49
27613;BME280;15036;48.094;-1.690;2023-03-01T03:07:47;102105.94;;;5.76;54.29
27613;BME280;15036;48.094;-1.690;2023-03-01T03:10:16;102106.44;;;5.40;55.46
27613;BME280;15036;48.094;-1.690;2023-03-01T03:12:49;102098.75;;;5.86;53.12
27613;BME280;15036;48.094;-1.690;2023-03-01T03:15:14;102087.91;;;5.86;53.42
27613;BME280;15036;48.094;-1.690;2023-03-01T03:17:41;102093.94;;;5.99;52.42
27613;BME280;15036;48.094;-1.690;2023-03-01T03:20:08;102097.97;;;5.54;54.08
27613;BME280;15036;48.094;-1.690;2023-03-01T03:22:39;102086.56;;;5.50;53.39
27613;BME280;15036;48.094;-1.690;2023-03-01T03:25:07;102087.13;;;5.54;52.38
27613;BME280;15036;48.094;-1.690;2023-03-01T03:27:40;102091.25;;;5.27;52.82
27613;BME280;15036;48.094;-1.690;2023-03-01T03:30:07;102083.00;;;5.80;51.48
27613;BME280;15036;48.094;-1.690;2023-03-01T03:32:36;102088.97;;;5.74;51.90
27613;BME280;15036;48.094;-1.690;2023-03-01T03:35:06;102082.50;;;5.65;51.98
27613;BME280;15036;48.094;-1.690;2023-03-01T03:37:39;102084.56;;;5.52;52.26
27613;BME280;15036;48.094;-1.690;2023-03-01T03:40:23;102081.19;;;5.60;52.16
27613;BME280;15036;48.094;-1.690;2023-03-01T03:42:49;102085.41;;;5.53;52.56
27613;BME280;15036;48.094;-1.690;2023-03-01T03:45:15;102087.00;;;5.55;52.58
27613;BME280;15036;48.094;-1.690;2023-03-01T03:47:41;102092.91;;;5.40;52.61
27613;BME280;15036;48.094;-1.690;2023-03-01T03:50:08;102091.63;;;5.44;52.72
27613;BME280;15036;48.094;-1.690;2023-03-01T03:52:34;102081.09;;;5.41;52.79
27613;BME280;15036;48.094;-1.690;2023-03-01T03:54:59;102078.16;;;4.91;53.37
27613;BME280;15036;48.094;-1.690;2023-03-01T03:57:24;102070.34;;;5.09;53.29
27613;BME280;15036;48.094;-1.690;2023-03-01T03:59:50;102077.19;;;5.13;53.43
27613;BME280;15036;48.094;-1.690;2023-03-01T04:02:15;102074.34;;;5.14;53.45
27613;BME280;15036;48.094;-1.690;2023-03-01T04:04:50;102086.88;;;5.15;53.20
27613;BME280;15036;48.094;-1.690;2023-03-01T04:07:16;102078.22;;;4.80;54.18
27613;BME280;15036;48.094;-1.690;2023-03-01T04:09:42;102081.84;;;4.90;53.89
27613;BME280;15036;48.094;-1.690;2023-03-01T04:12:08;102078.84;;;5.04;53.64
27613;BME280;15036;48.094;-1.690;2023-03-01T04:14:33;102080.63;;;4.83;53.93
27613;BME280;15036;48.094;-1.690;2023-03-01T04:16:59;102079.34;;;4.98;53.69
27613;BME280;15036;48.094;-1.690;2023-03-01T04:19:24;102080.06;;;4.80;53.77
27613;BME280;15036;48.094;-1.690;2023-03-01T04:21:49;102078.03;;;4.93;53.68
27613;BME280;15036;48.094;-1.690;2023-03-01T04:24:15;102068.22;;;4.60;54.11
27613;BME280;15036;48.094;-1.690;2023-03-01T04:26:41;102068.91;;;5.35;52.47
27613;BME280;15036;48.094;-1.690;2023-03-01T04:29:06;102067.59;;;5.29;52.46
27613;BME280;15036;48.094;-1.690;2023-03-01T04:31:32;102064.63;;;5.12;52.40
27613;BME280;15036;48.094;-1.690;2023-03-01T04:33:57;102055.81;;;5.31;52.06
27613;BME280;15036;48.094;-1.690;2023-03-01T04:36:25;102062.19;;;5.50;51.64
27613;BME280;15036;48.094;-1.690;2023-03-01T04:38:51;102057.78;;;5.28;51.70
27613;BME280;15036;48.094;-1.690;2023-03-01T04:41:18;102058.25;;;5.13;52.07
27613;BME280;15036;48.094;-1.690;2023-03-01T04:43:44;102058.16;;;5.45;51.34
27613;BME280;15036;48.094;-1.690;2023-03-01T04:46:14;102062.06;;;4.90;52.25
27613;BME280;15036;48.094;-1.690;2023-03-01T04:48:40;102050.66;;;5.07;51.79
27613;BME280;15036;48.094;-1.690;2023-03-01T04:51:07;102054.53;;;5.14;51.72
27613;BME280;15036;48.094;-1.690;2023-03-01T04:53:34;102057.78;;;5.08;51.79
27613;BME280;15036;48.094;-1.690;2023-03-01T04:56:01;102059.81;;;5.15;51.84
27613;BME280;15036;48.094;-1.690;2023-03-01T04:58:27;102058.84;;;5.16;51.59
27613;BME280;15036;48.094;-1.690;2023-03-01T05:00:54;102053.88;;;4.80;52.08
27613;BME280;15036;48.094;-1.690;2023-03-01T05:03:20;102054.13;;;4.98;52.04
27613;BME280;15036;48.094;-1.690;2023-03-01T05:05:47;102048.16;;;5.15;51.96
27613;BME280;15036;48.094;-1.690;2023-03-01T05:08:13;102041.66;;;5.27;51.36
27613;BME280;15036;48.094;-1.690;2023-03-01T05:10:45;102039.28;;;5.34;51.50
27613;BME280;15036;48.094;-1.690;2023-03-01T05:13:12;102039.94;;;5.26;51.38
27613;BME280;15036;48.094;-1.690;2023-03-01T05:15:38;102045.94;;;5.29;50.97
27613;BME280;15036;48.094;-1.690;2023-03-01T05:18:04;102044.97;;;5.10;51.50
27613;BME280;15036;48.094;-1.690;2023-03-01T05:20:37;102041.22;;;4.81;51.83
27613;BME280;15036;48.094;-1.690;2023-03-01T05:23:03;102057.75;;;4.87;52.16
27613;BME280;15036;48.094;-1.690;2023-03-01T05:25:31;102047.34;;;5.03;51.60
27613;BME280;15036;48.094;-1.690;2023-03-01T05:27:58;102047.88;;;4.97;51.48
27613;BME280;15036;48.094;-1.690;2023-03-01T05:30:24;102053.63;;;5.24;51.31
27613;BME280;15036;48.094;-1.690;2023-03-01T05:32:50;102054.09;;;5.09;51.68
27613;BME280;15036;48.094;-1.690;2023-03-01T05:35:21;102053.34;;;5.27;51.08
27613;BME280;15036;48.094;-1.690;2023-03-01T05:37:48;102044.63;;;5.45;50.58
27613;BME280;15036;48.094;-1.690;2023-03-01T05:40:16;102051.06;;;5.53;50.56
27613;BME280;15036;48.094;-1.690;2023-03-01T05:42:43;102051.47;;;5.49;50.35
27613;BME280;15036;48.094;-1.690;2023-03-01T05:45:09;102047.34;;;5.24;50.91
27613;BME280;15036;48.094;-1.690;2023-03-01T05:47:35;102041.59;;;5.17;51.07
27613;BME280;15036;48.094;-1.690;2023-03-01T05:50:01;102053.59;;;5.45;50.20
27613;BME280;15036;48.094;-1.690;2023-03-01T05:52:26;102049.19;;;4.82;51.29
27613;BME280;15036;48.094;-1.690;2023-03-01T05:54:51;102041.72;;;4.95;51.18
27613;BME280;15036;48.094;-1.690;2023-03-01T05:57:17;102045.94;;;5.29;50.66
27613;BME280;15036;48.094;-1.690;2023-03-01T05:59:42;102047.13;;;4.95;51.43
27613;BME280;15036;48.094;-1.690;2023-03-01T06:02:07;102044.38;;;5.06;51.17
27613;BME280;15036;48.094;-1.690;2023-03-01T06:04:33;102047.97;;;5.37;50.53
27613;BME280;15036;48.094;-1.690;2023-03-01T06:06:58;102048.91;;;5.47;50.31
27613;BME280;15036;48.094;-1.690;2023-03-01T06:09:24;102046.00;;;5.39;49.96
27613;BME280;15036;48.094;-1.690;2023-03-01T06:11:51;102041.69;;;5.06;50.38
27613;BME280;15036;48.094;-1.690;2023-03-01T06:14:16;102046.91;;;5.49;50.02
27613;BME280;15036;48.094;-1.690;2023-03-01T06:16:41;102044.38;;;5.57;49.66
27613;BME280;15036;48.094;-1.690;2023-03-01T06:19:07;102030.38;;;5.43;50.06
27613;BME280;15036;48.094;-1.690;2023-03-01T06:21:32;102043.25;;;4.88;51.07
27613;BME280;15036;48.094;-1.690;2023-03-01T06:23:58;102027.09;;;4.98;50.97
27613;BME280;15036;48.094;-1.690;2023-03-01T06:26:23;102039.84;;;5.37;50.14
27613;BME280;15036;48.094;-1.690;2023-03-01T06:28:48;102034.94;;;5.21;50.10
27613;BME280;15036;48.094;-1.690;2023-03-01T06:31:14;102039.53;;;4.89;50.53
27613;BME280;15036;48.094;-1.690;2023-03-01T06:33:39;102041.94;;;5.24;49.98
27613;BME280;15036;48.094;-1.690;2023-03-01T06:36:05;102033.28;;;4.89;50.48
27613;BME280;15036;48.094;-1.690;2023-03-01T06:38:30;102040.19;;;5.23;49.89
27613;BME280;15036;48.094;-1.690;2023-03-01T06:40:56;102033.66;;;5.25;50.01
27613;BME280;15036;48.094;-1.690;2023-03-01T06:43:22;102034.41;;;4.86;50.29
27613;BME280;15036;48.094;-1.690;2023-03-01T06:45:48;102043.00;;;5.33;49.54
27613;BME280;15036;48.094;-1.690;2023-03-01T06:48:14;102030.91;;;5.37;49.48
27613;BME280;15036;48.094;-1.690;2023-03-01T06:50:39;102028.13;;;5.27;49.24
27613;BME280;15036;48.094;-1.690;2023-03-01T06:53:04;102036.44;;;5.35;49.12
27613;BME280;15036;48.094;-1.690;2023-03-01T06:55:31;102035.75;;;5.12;49.88
27613;BME280;15036;48.094;-1.690;2023-03-01T06:57:58;102039.56;;;5.31;49.11
27613;BME280;15036;48.094;-1.690;2023-03-01T07:00:24;102041.19;;;5.43;49.29
27613;BME280;15036;48.094;-1.690;2023-03-01T07:02:50;102042.03;;;5.43;49.09
27613;BME280;15036;48.094;-1.690;2023-03-01T07:05:15;102039.97;;;4.85;49.83
27613;BME280;15036;48.094;-1.690;2023-03-01T07:07:41;102040.03;;;5.45;48.98
27613;BME280;15036;48.094;-1.690;2023-03-01T07:10:07;102047.78;;;5.50;49.09
27613;BME280;15036;48.094;-1.690;2023-03-01T07:12:32;102041.53;;;5.59;48.80
27613;BME280;15036;48.094;-1.690;2023-03-01T07:14:58;102051.50;;;5.28;49.21
27613;BME280;15036;48.094;-1.690;2023-03-01T07:17:23;102046.88;;;5.19;49.33
27613;BME280;15036;48.094;-1.690;2023-03-01T07:19:48;102043.66;;;5.55;48.70
27613;BME280;15036;48.094;-1.690;2023-03-01T07:22:14;102052.94;;;5.11;49.17
27613;BME280;15036;48.094;-1.690;2023-03-01T07:24:41;102047.63;;;5.00;49.85
27613;BME280;15036;48.094;-1.690;2023-03-01T07:27:06;102055.44;;;5.03;49.76
27613;BME280;15036;48.094;-1.690;2023-03-01T07:29:32;102063.19;;;5.28;49.00
27613;BME280;15036;48.094;-1.690;2023-03-01T07:31:57;102059.81;;;4.95;49.34
27613;BME280;15036;48.094;-1.690;2023-03-01T07:34:23;102059.22;;;4.91;49.32
27613;BME280;15036;48.094;-1.690;2023-03-01T07:36:49;102059.03;;;5.24;48.99
27613;BME280;15036;48.094;-1.690;2023-03-01T07:39:14;102050.19;;;5.53;48.57
27613;BME280;15036;48.094;-1.690;2023-03-01T07:41:40;102056.63;;;5.52;48.31
27613;BME280;15036;48.094;-1.690;2023-03-01T07:44:05;102051.19;;;5.72;48.03
27613;BME280;15036;48.094;-1.690;2023-03-01T07:46:30;102049.25;;;5.63;48.14
27613;BME280;15036;48.094;-1.690;2023-03-01T07:48:56;102054.69;;;5.12;48.49
27613;BME280;15036;48.094;-1.690;2023-03-01T07:51:23;102054.28;;;5.68;47.72
27613;BME280;15036;48.094;-1.690;2023-03-01T07:53:48;102063.31;;;5.48;48.33
27613;BME280;15036;48.094;-1.690;2023-03-01T07:56:15;102046.41;;;5.65;47.65
27613;BME280;15036;48.094;-1.690;2023-03-01T07:58:43;102057.88;;;5.48;48.13
27613;BME280;15036;48.094;-1.690;2023-03-01T08:01:13;102055.19;;;6.08;47.19
27613;BME280;15036;48.094;-1.690;2023-03-01T08:03:39;102050.16;;;5.43;47.85
27613;BME280;15036;48.094;-1.690;2023-03-01T08:06:08;102056.38;;;5.85;47.52
27613;BME280;15036;48.094;-1.690;2023-03-01T08:08:34;102051.84;;;5.65;47.77
27613;BME280;15036;48.094;-1.690;2023-03-01T08:11:02;102054.88;;;6.01;47.23
27613;BME280;15036;48.094;-1.690;2023-03-01T08:13:28;102054.00;;;6.01;46.95
27613;BME280;15036;48.094;-1.690;2023-03-01T08:15:54;102059.19;;;6.13;46.58
27613;BME280;15036;48.094;-1.690;2023-03-01T08:18:20;102054.50;;;6.25;46.58
27613;BME280;15036;48.094;-1.690;2023-03-01T08:20:46;102052.78;;;6.24;46.25
27613;BME280;15036;48.094;-1.690;2023-03-01T08:23:12;102058.09;;;6.35;46.52
27613;BME280;15036;48.094;-1.690;2023-03-01T08:25:38;102046.53;;;6.33;46.40
27613;BME280;15036;48.094;-1.690;2023-03-01T08:28:04;102046.47;;;6.14;46.89
27613;BME280;15036;48.094;-1.690;2023-03-01T08:30:29;102033.13;;;6.32;46.47
27613;BME280;15036;48.094;-1.690;2023-03-01T08:32:55;102031.41;;;6.40;46.39
27613;BME280;15036;48.094;-1.690;2023-03-01T08:35:21;102037.84;;;6.39;46.23
27613;BME280;15036;48.094;-1.690;2023-03-01T08:37:46;102034.34;;;6.08;46.23
27613;BME280;15036;48.094;-1.690;2023-03-01T08:40:12;102036.41;;;6.54;46.02
27613;BME280;15036;48.094;-1.690;2023-03-01T08:42:39;102044.63;;;6.24;46.65
27613;BME280;15036;48.094;-1.690;2023-03-01T08:45:05;102030.81;;;6.27;46.60
27613;BME280;15036;48.094;-1.690;2023-03-01T08:47:31;102029.38;;;6.23;46.32
27613;BME280;15036;48.094;-1.690;2023-03-01T08:49:58;102025.66;;;6.24;46.40
27613;BME280;15036;48.094;-1.690;2023-03-01T08:52:24;102032.31;;;6.01;46.48
27613;BME280;15036;48.094;-1.690;2023-03-01T08:54:49;102028.56;;;6.42;45.98
27613;BME280;15036;48.094;-1.690;2023-03-01T08:57:15;102026.34;;;5.97;46.11
27613;BME280;15036;48.094;-1.690;2023-03-01T08:59:40;102032.47;;;5.99;46.82
27613;BME280;15036;48.094;-1.690;2023-03-01T09:02:12;102026.56;;;6.63;45.95
27613;BME280;15036;48.094;-1.690;2023-03-01T09:04:38;102025.56;;;6.45;45.91
27613;BME280;15036;48.094;-1.690;2023-03-01T09:07:04;102027.28;;;6.65;45.75
27613;BME280;15036;48.094;-1.690;2023-03-01T09:09:29;102027.41;;;6.54;45.94
27613;BME280;15036;48.094;-1.690;2023-03-01T09:11:55;102031.53;;;6.39;45.57
27613;BME280;15036;48.094;-1.690;2023-03-01T09:14:20;102019.72;;;6.49;45.79
27613;BME280;15036;48.094;-1.690;2023-03-01T09:16:46;102029.13;;;6.83;45.33
27613;BME280;15036;48.094;-1.690;2023-03-01T09:19:11;102023.25;;;6.97;45.23
27613;BME280;15036;48.094;-1.690;2023-03-01T09:21:37;102014.72;;;6.92;45.18
27613;BME280;15036;48.094;-1.690;2023-03-01T09:24:03;102018.63;;;7.36;44.50
27613;BME280;15036;48.094;-1.690;2023-03-01T09:26:28;102018.94;;;7.24;44.27
27613;BME280;15036;48.094;-1.690;2023-03-01T09:28:55;102019.81;;;6.95;44.80
27613;BME280;15036;48.094;-1.690;2023-03-01T09:31:22;102020.81;;;7.14;44.74
27613;BME280;15036;48.094;-1.690;2023-03-01T09:33:49;102014.25;;;7.53;43.94
27613;BME280;15036;48.094;-1.690;2023-03-01T09:36:18;102015.47;;;7.77;43.66
27613;BME280;15036;48.094;-1.690;2023-03-01T09:38:44;102016.25;;;7.51;43.76
27613;BME280;15036;48.094;-1.690;2023-03-01T09:41:43;102014.59;;;7.40;43.54
27613;BME280;15036;48.094;-1.690;2023-03-01T09:44:16;102004.09;;;7.55;43.50
27613;BME280;15036;48.094;-1.690;2023-03-01T09:46:47;102004.22;;;7.63;43.33
27613;BME280;15036;48.094;-1.690;2023-03-01T09:49:19;101992.22;;;8.10;42.84
27613;BME280;15036;48.094;-1.690;2023-03-01T09:51:55;102000.13;;;7.86;42.76
27613;BME280;15036;48.094;-1.690;2023-03-01T09:54:21;102011.19;;;8.02;42.85
27613;BME280;15036;48.094;-1.690;2023-03-01T09:56:57;101992.72;;;8.23;42.87
27613;BME280;15036;48.094;-1.690;2023-03-01T10:02:21;102000.41;;;7.83;42.80
27613;BME280;15036;48.094;-1.690;2023-03-01T10:04:50;101993.72;;;8.22;42.54
27613;BME280;15036;48.094;-1.690;2023-03-01T10:10:00;101993.38;;;8.52;41.85
27613;BME280;15036;48.094;-1.690;2023-03-01T10:12:35;101988.88;;;8.26;42.31
27613;BME280;15036;48.094;-1.690;2023-03-01T10:17:39;101997.97;;;8.07;42.71
27613;BME280;15036;48.094;-1.690;2023-03-01T10:20:17;101995.25;;;8.34;42.05
27613;BME280;15036;48.094;-1.690;2023-03-01T10:22:43;101994.72;;;8.48;42.17
27613;BME280;15036;48.094;-1.690;2023-03-01T10:25:14;101985.69;;;8.03;42.67
27613;BME280;15036;48.094;-1.690;2023-03-01T10:27:51;101984.59;;;8.58;41.73
27613;BME280;15036;48.094;-1.690;2023-03-01T10:30:25;101983.72;;;8.75;41.75
27613;BME280;15036;48.094;-1.690;2023-03-01T10:32:55;101971.00;;;8.58;42.09
27613;BME280;15036;48.094;-1.690;2023-03-01T10:35:32;101980.03;;;8.41;42.04
27613;BME280;15036;48.094;-1.690;2023-03-01T10:38:06;101970.38;;;8.29;42.32
27613;BME280;15036;48.094;-1.690;2023-03-01T10:40:33;101971.69;;;8.25;41.98
27613;BME280;15036;48.094;-1.690;2023-03-01T10:43:01;101972.78;;;8.32;42.17
27613;BME280;15036;48.094;-1.690;2023-03-01T10:45:38;101970.94;;;8.94;42.08
27613;BME280;15036;48.094;-1.690;2023-03-01T10:50:40;101967.00;;;9.14;41.56
27613;BME280;15036;48.094;-1.690;2023-03-01T10:53:27;101958.25;;;9.28;41.35
27613;BME280;15036;48.094;-1.690;2023-03-01T10:56:20;101958.25;;;9.02;40.87
27613;BME280;15036;48.094;-1.690;2023-03-01T10:59:04;101950.03;;;8.94;41.57
27613;BME280;15036;48.094;-1.690;2023-03-01T11:01:32;101952.16;;;9.34;41.19
27613;BME280;15036;48.094;-1.690;2023-03-01T11:06:37;101944.94;;;9.50;41.34
27613;BME280;15036;48.094;-1.690;2023-03-01T11:09:24;101941.13;;;9.85;40.47
27613;BME280;15036;48.094;-1.690;2023-03-01T11:11:55;101941.78;;;10.21;40.73
27613;BME280;15036;48.094;-1.690;2023-03-01T11:14:23;101931.91;;;10.20;40.26
27613;BME280;15036;48.094;-1.690;2023-03-01T11:17:21;101931.34;;;9.67;41.19
27613;BME280;15036;48.094;-1.690;2023-03-01T11:20:04;101927.94;;;9.65;41.57
27613;BME280;15036;48.094;-1.690;2023-03-01T11:22:32;101943.97;;;9.34;41.34
27613;BME280;15036;48.094;-1.690;2023-03-01T11:25:00;101934.97;;;9.41;41.58
27613;BME280;15036;48.094;-1.690;2023-03-01T11:27:31;101924.41;;;9.05;41.89
27613;BME280;15036;48.094;-1.690;2023-03-01T11:30:04;101920.22;;;9.52;41.76
27613;BME280;15036;48.094;-1.690;2023-03-01T11:32:38;101923.19;;;9.75;41.23
27613;BME280;15036;48.094;-1.690;2023-03-01T11:35:18;101921.56;;;9.90;40.71
27613;BME280;15036;48.094;-1.690;2023-03-01T11:49:32;101909.19;;;10.19;40.47
27613;BME280;15036;48.094;-1.690;2023-03-01T11:52:21;101897.94;;;10.22;40.49
27613;BME280;15036;48.094;-1.690;2023-03-01T11:55:13;101894.38;;;10.46;40.13
27613;BME280;15036;48.094;-1.690;2023-03-01T12:06:13;101871.91;;;11.23;38.38
27613;BME280;15036;48.094;-1.690;2023-03-01T12:17:42;101862.00;;;11.14;36.58
27613;BME280;15036;48.094;-1.690;2023-03-01T12:20:45;101851.50;;;10.87;36.99
27613;BME280;15036;48.094;-1.690;2023-03-01T12:26:08;101851.91;;;11.22;36.97
27613;BME280;15036;48.094;-1.690;2023-03-01T12:34:38;101825.72;;;12.57;36.07
27613;BME280;15036;48.094;-1.690;2023-03-01T12:37:19;101828.06;;;12.00;36.42
27613;BME280;15036;48.094;-1.690;2023-03-01T12:39:56;101818.03;;;11.70;35.78
27613;BME280;15036;48.094;-1.690;2023-03-01T12:47:58;101817.38;;;11.68;36.43
27613;BME280;15036;48.094;-1.690;2023-03-01T12:50:40;101808.63;;;11.65;36.37
27613;BME280;15036;48.094;-1.690;2023-03-01T12:53:20;101813.56;;;11.39;36.09
27613;BME280;15036;48.094;-1.690;2023-03-01T12:55:47;101808.50;;;11.66;35.71
27613;BME280;15036;48.094;-1.690;2023-03-01T13:01:28;101793.88;;;11.43;35.64
27613;BME280;15036;48.094;-1.690;2023-03-01T13:11:51;101771.53;;;12.30;34.24
27613;BME280;15036;48.094;-1.690;2023-03-01T13:16:54;101759.25;;;13.07;33.10
27613;BME280;15036;48.094;-1.690;2023-03-01T13:19:22;101757.88;;;13.68;33.27
27613;BME280;15036;48.094;-1.690;2023-03-01T13:21:49;101744.28;;;13.24;32.94
27613;BME280;15036;48.094;-1.690;2023-03-01T13:29:54;101732.63;;;13.37;31.97
27613;BME280;15036;48.094;-1.690;2023-03-01T13:32:24;101728.00;;;13.79;31.15
27613;BME280;15036;48.094;-1.690;2023-03-01T13:37:37;101711.97;;;13.76;31.34
27613;BME280;15036;48.094;-1.690;2023-03-01T13:42:51;101707.28;;;14.88;30.21
27613;BME280;15036;48.094;-1.690;2023-03-01T13:47:50;101709.63;;;14.01;30.90
27613;BME280;15036;48.094;-1.690;2023-03-01T13:50:23;101716.13;;;14.76;30.44
27613;BME280;15036;48.094;-1.690;2023-03-01T13:53:17;101704.69;;;14.73;30.81
27613;BME280;15036;48.094;-1.690;2023-03-01T13:55:45;101704.53;;;14.88;30.66
27613;BME280;15036;48.094;-1.690;2023-03-01T14:00:44;101690.25;;;13.60;32.09
27613;BME280;15036;48.094;-1.690;2023-03-01T14:03:18;101687.84;;;13.00;32.25
27613;BME280;15036;48.094;-1.690;2023-03-01T14:06:23;101694.41;;;13.99;31.80
27613;BME280;15036;48.094;-1.690;2023-03-01T14:08:52;101680.34;;;14.08;31.58
27613;BME280;15036;48.094;-1.690;2023-03-01T14:11:21;101682.13;;;14.84;31.13
27613;BME280;15036;48.094;-1.690;2023-03-01T14:16:28;101685.19;;;15.15;30.05
27613;BME280;15036;48.094;-1.690;2023-03-01T14:21:34;101670.59;;;15.08;30.06
27613;BME280;15036;48.094;-1.690;2023-03-01T14:24:01;101680.59;;;14.41;30.93
27613;BME280;15036;48.094;-1.690;2023-03-01T14:26:27;101672.75;;;14.72;30.88
27613;BME280;15036;48.094;-1.690;2023-03-01T14:28:52;101666.22;;;14.73;31.48
27613;BME280;15036;48.094;-1.690;2023-03-01T14:31:39;101662.66;;;14.45;31.21
27613;BME280;15036;48.094;-1.690;2023-03-01T14:34:18;101676.03;;;13.99;31.43